Time;durP1;ratioP1;P1;durP2;ratioP2;P2;SDS_P1;SDS_P2;PMS_P1;PMS_P2;Temp;Humidity;BMP_temperature;BMP_pressure;BME280_temperature;BME280_humidity;BME280_pressure;Samples;Min_cycle;Max_cycle;Signal;HPM_P1;HPM_P2
2021/08/21 00:00:15;;;;;;;54.40;34.15;;;;;;;;;;2088259;28;20175;-55
2021/08/21 00:01:19;;;;;;;55.58;34.13;;;;;;;;;;2082705;28;20222;-54
2021/08/21 00:02:19;;;;;;;58.08;32.83;;;;;;;;;;2081260;28;20260;-55
2021/08/21 00:03:19;;;;;;;52.72;33.28;;;;;;;;;;2080574;28;20246;-53
2021/08/21 00:04:19;;;;;;;52.65;32.70;;;;;;;;;;2080497;28;20176;-55
2021/08/21 00:05:20;;;;;;;56.10;33.47;;;;;;;;;;2087714;28;20523;-53
2021/08/21 00:06:20;;;;;;;52.15;33.05;;;;;;;;;;2088535;28;20258;-52
2021/08/21 00:07:20;;;;;;;50.28;30.73;;;;;;;;;;2089328;28;20251;-53
2021/08/21 00:08:20;;;;;;;49.67;32.15;;;;;;;;;;2089300;28;20182;-55
2021/08/21 00:09:21;;;;;;;51.97;34.25;;;;;;;;;;2088986;28;20242;-55
2021/08/21 00:10:21;;;;;;;57.50;34.85;;;;;;;;;;2088911;28;20254;-57
2021/08/21 00:11:22;;;;;;;59.50;35.42;;;;;;;;;;2088480;28;20186;-55
2021/08/21 00:12:22;;;;;;;49.67;32.10;;;;;;;;;;2089445;28;20202;-53
2021/08/21 00:13:22;;;;;;;50.33;33.13;;;;;;;;;;2089179;28;20528;-52
2021/08/21 00:14:22;;;;;;;51.05;32.80;;;;;;;;;;2088915;28;20175;-56
2021/08/21 00:15:23;;;;;;;52.22;31.77;;;;;;;;;;2089432;28;20167;-56
2021/08/21 00:16:23;;;;;;;52.78;34.10;;;;;;;;;;2088996;28;20179;-54
2021/08/21 00:17:23;;;;;;;54.15;34.67;;;;;;;;;;2093749;28;20232;-53
2021/08/21 00:18:23;;;;;;;58.42;35.03;;;;;;;;;;2087130;28;20164;-54
2021/08/21 00:19:24;;;;;;;49.35;34.63;;;;;;;;;;2087406;28;20210;-53
2021/08/21 00:20:24;;;;;;;56.13;34.58;;;;;;;;;;2094086;28;20167;-50
2021/08/21 00:21:24;;;;;;;53.80;32.33;;;;;;;;;;2089571;28;20163;-52
2021/08/21 00:22:25;;;;;;;56.92;32.28;;;;;;;;;;2089557;28;20187;-52
2021/08/21 00:23:25;;;;;;;55.13;33.60;;;;;;;;;;2088869;28;20174;-54
2021/08/21 00:24:25;;;;;;;62.22;35.88;;;;;;;;;;2089159;28;20599;-55
2021/08/21 00:25:26;;;;;;;68.68;36.50;;;;;;;;;;2088975;28;20203;-56
2021/08/21 00:26:26;;;;;;;62.08;36.50;;;;;;;;;;2089261;28;20190;-54
2021/08/21 00:27:27;;;;;;;61.65;35.85;;;;;;;;;;2087615;28;20737;-55
2021/08/21 00:28:27;;;;;;;58.58;33.28;;;;;;;;;;2088223;28;20182;-53
2021/08/21 00:29:27;;;;;;;56.13;32.75;;;;;;;;;;2079916;28;20219;-56
2021/08/21 00:30:28;;;;;;;48.25;31.15;;;;;;;;;;2080208;28;20168;-52
2021/08/21 00:31:28;;;;;;;53.40;31.70;;;;;;;;;;2088288;28;20183;-55
2021/08/21 00:32:28;;;;;;;50.20;32.88;;;;;;;;;;2088301;28;20234;-51
2021/08/21 00:33:28;;;;;;;54.45;33.92;;;;;;;;;;2079802;28;20307;-55
2021/08/21 00:34:31;;;;;;;53.80;33.00;;;;;;;;;;2079788;28;20203;-53
2021/08/21 00:35:32;;;;;;;55.38;34.08;;;;;;;;;;2088716;28;20179;-56
2021/08/21 00:36:32;;;;;;;54.17;34.35;;;;;;;;;;2088048;28;20171;-52
2021/08/21 00:37:33;;;;;;;55.13;34.15;;;;;;;;;;2079137;28;20168;-55
2021/08/21 00:38:33;;;;;;;52.95;33.63;;;;;;;;;;2079328;28;20173;-52
2021/08/21 00:39:33;;;;;;;54.33;34.60;;;;;;;;;;2088801;28;20726;-54
2021/08/21 00:40:34;;;;;;;64.03;36.42;;;;;;;;;;2087757;28;20684;-53
2021/08/21 00:41:34;;;;;;;56.95;36.67;;;;;;;;;;2088261;28;20711;-57
2021/08/21 00:42:35;;;;;;;58.47;36.08;;;;;;;;;;2089058;28;20250;-55
2021/08/21 00:43:36;;;;;;;58.58;35.08;;;;;;;;;;2088059;28;20194;-57
2021/08/21 00:44:38;;;;;;;62.20;34.95;;;;;;;;;;2088177;28;20165;-57
2021/08/21 00:45:38;;;;;;;49.22;32.05;;;;;;;;;;2087382;28;20171;-54
2021/08/21 00:46:58;;;;;;;45.85;29.55;;;;;;;;;;2088547;28;20226;-54
2021/08/21 00:47:59;;;;;;;47.00;30.45;;;;;;;;;;2088003;28;20167;-55
2021/08/21 00:49:00;;;;;;;53.35;31.52;;;;;;;;;;2087984;28;20179;-54
2021/08/21 00:50:00;;;;;;;48.03;29.35;;;;;;;;;;2088255;28;20699;-55
2021/08/21 00:51:01;;;;;;;46.50;29.42;;;;;;;;;;2088488;28;20172;-53
2021/08/21 00:52:04;;;;;;;45.60;28.67;;;;;;;;;;2080560;28;20291;-56
2021/08/21 00:53:05;;;;;;;41.35;28.25;;;;;;;;;;2080340;28;20640;-53
2021/08/21 00:54:05;;;;;;;44.28;29.00;;;;;;;;;;2077716;28;20173;-57
2021/08/21 00:55:06;;;;;;;48.50;29.30;;;;;;;;;;2078813;28;20172;-55
2021/08/21 00:56:06;;;;;;;40.95;27.40;;;;;;;;;;2077228;28;20168;-53
2021/08/21 00:57:08;;;;;;;46.78;30.63;;;;;;;;;;2069157;28;20885;-55
2021/08/21 00:58:10;;;;;;;42.75;28.80;;;;;;;;;;2076304;28;20683;-57
2021/08/21 00:59:10;;;;;;;40.88;28.23;;;;;;;;;;2088385;28;20195;-53
2021/08/21 01:00:11;;;;;;;38.08;26.27;;;;;;;;;;2066811;28;20791;-52
2021/08/21 01:01:12;;;;;;;39.95;26.85;;;;;;;;;;2069669;28;20177;-54
2021/08/21 01:02:13;;;;;;;38.03;26.13;;;;;;;;;;2085939;28;20260;-54
2021/08/21 01:03:14;;;;;;;38.50;25.70;;;;;;;;;;2077273;28;20181;-54
2021/08/21 01:04:14;;;;;;;39.75;26.05;;;;;;;;;;2078002;28;20255;-54
2021/08/21 01:05:16;;;;;;;42.42;29.85;;;;;;;;;;2079872;28;20168;-52
2021/08/21 01:06:16;;;;;;;40.08;27.08;;;;;;;;;;2079908;28;20184;-52
2021/08/21 01:07:36;;;;;;;38.10;27.02;;;;;;;;;;2079737;28;20169;-55
2021/08/21 01:08:39;;;;;;;43.65;28.25;;;;;;;;;;2079341;28;20180;-53
2021/08/21 01:09:44;;;;;;;37.90;26.48;;;;;;;;;;2079044;28;20208;-53
2021/08/21 01:10:46;;;;;;;39.65;26.88;;;;;;;;;;2063882;28;20186;-53
2021/08/21 01:11:46;;;;;;;38.28;27.58;;;;;;;;;;2072289;28;20209;-54
2021/08/21 01:12:48;;;;;;;40.10;27.27;;;;;;;;;;2076641;28;20565;-55
2021/08/21 01:13:48;;;;;;;40.30;27.13;;;;;;;;;;2071638;28;20657;-53
2021/08/21 01:14:49;;;;;;;37.10;27.45;;;;;;;;;;2075351;28;20261;-52
2021/08/21 01:15:51;;;;;;;37.97;26.73;;;;;;;;;;2069158;28;20169;-53
2021/08/21 01:16:51;;;;;;;38.65;27.80;;;;;;;;;;2069386;28;20185;-54
2021/08/21 01:17:52;;;;;;;41.15;27.67;;;;;;;;;;2087995;28;20599;-51
2021/08/21 01:18:52;;;;;;;36.97;24.80;;;;;;;;;;2069492;28;20555;-53
2021/08/21 01:19:53;;;;;;;40.67;27.33;;;;;;;;;;2071528;28;20196;-54
2021/08/21 01:20:53;;;;;;;42.47;28.30;;;;;;;;;;2079699;28;20164;-55
2021/08/21 01:21:56;;;;;;;43.97;29.35;;;;;;;;;;2080740;28;20176;-53
2021/08/21 01:22:58;;;;;;;37.95;27.13;;;;;;;;;;2086735;28;20222;-53
2021/08/21 01:24:07;;;;;;;43.47;27.27;;;;;;;;;;2085173;28;20159;-55
2021/08/21 01:25:19;;;;;;;43.30;29.25;;;;;;;;;;2089266;28;20176;-55
2021/08/21 01:26:20;;;;;;;47.00;30.30;;;;;;;;;;2088765;28;20172;-57
2021/08/21 01:27:31;;;;;;;46.80;32.90;;;;;;;;;;2079071;28;20243;-51
2021/08/21 01:28:44;;;;;;;40.63;28.35;;;;;;;;;;2073608;28;20196;-55
2021/08/21 01:30:23;;;;;;;42.72;28.55;;;;;;;;;;2072881;28;20191;-53
2021/08/21 01:31:28;;;;;;;42.70;29.67;;;;;;;;;;2088978;28;20148;-53
2021/08/21 01:32:30;;;;;;;44.95;29.67;;;;;;;;;;2079960;28;20204;-53
2021/08/21 01:33:37;;;;;;;37.88;26.02;;;;;;;;;;2077473;28;20192;-57
2021/08/21 01:34:37;;;;;;;46.90;29.65;;;;;;;;;;2080378;28;20842;-54
2021/08/21 01:35:39;;;;;;;44.25;29.40;;;;;;;;;;2071158;28;20180;-51
2021/08/21 01:36:40;;;;;;;46.33;28.52;;;;;;;;;;2076934;28;20196;-53
2021/08/21 01:38:00;;;;;;;43.72;26.85;;;;;;;;;;2082483;28;20180;-54
2021/08/21 01:39:20;;;;;;;39.05;27.48;;;;;;;;;;2089426;28;20223;-57
2021/08/21 01:40:26;;;;;;;44.92;28.25;;;;;;;;;;2088452;28;20176;-56
2021/08/21 01:41:26;;;;;;;42.33;28.35;;;;;;;;;;2087713;28;20218;-53
2021/08/21 01:42:31;;;;;;;42.67;28.35;;;;;;;;;;2079734;28;20187;-56
2021/08/21 01:43:31;;;;;;;45.20;28.77;;;;;;;;;;2071772;28;20558;-52
2021/08/21 01:44:33;;;;;;;38.30;28.08;;;;;;;;;;2071529;28;20555;-56
2021/08/21 01:45:33;;;;;;;45.60;29.50;;;;;;;;;;2065609;28;20206;-53
2021/08/21 01:46:33;;;;;;;43.35;29.38;;;;;;;;;;2076791;28;20255;-52
2021/08/21 01:47:36;;;;;;;47.13;29.17;;;;;;;;;;2079835;28;20739;-53
2021/08/21 01:48:36;;;;;;;46.72;29.17;;;;;;;;;;2062590;28;20178;-55
2021/08/21 01:49:39;;;;;;;46.40;27.95;;;;;;;;;;2072177;28;20646;-57
2021/08/21 01:50:40;;;;;;;43.33;28.58;;;;;;;;;;2072504;28;20284;-55
2021/08/21 01:51:43;;;;;;;42.13;27.98;;;;;;;;;;2080043;28;20183;-55
2021/08/21 01:52:46;;;;;;;40.83;27.00;;;;;;;;;;2079861;28;20207;-54
2021/08/21 01:54:03;;;;;;;37.58;24.50;;;;;;;;;;2085689;28;20258;-55
2021/08/21 01:55:07;;;;;;;35.70;24.58;;;;;;;;;;2079969;28;20184;-56
2021/08/21 01:56:09;;;;;;;37.00;26.27;;;;;;;;;;2076983;28;20168;-57
2021/08/21 01:57:45;;;;;;;37.58;23.77;;;;;;;;;;2060712;28;20173;-52
2021/08/21 01:59:04;;;;;;;37.45;25.75;;;;;;;;;;2064987;28;20554;-52
2021/08/21 02:00:24;;;;;;;38.63;24.65;;;;;;;;;;2073355;28;20183;-53
2021/08/21 02:01:29;;;;;;;37.42;24.58;;;;;;;;;;2082924;28;20180;-54
2021/08/21 02:02:49;;;;;;;32.70;23.67;;;;;;;;;;2079493;28;20264;-55
2021/08/21 02:03:54;;;;;;;36.40;25.90;;;;;;;;;;2078509;28;20164;-56
2021/08/21 02:04:55;;;;;;;31.17;24.30;;;;;;;;;;2081353;28;20175;-55
2021/08/21 02:05:55;;;;;;;32.08;23.42;;;;;;;;;;2082385;28;20194;-55
2021/08/21 02:06:55;;;;;;;35.97;24.77;;;;;;;;;;2077996;28;20550;-55
2021/08/21 02:07:56;;;;;;;38.45;25.95;;;;;;;;;;2076855;28;20222;-53
2021/08/21 02:08:56;;;;;;;32.90;24.27;;;;;;;;;;2077251;28;20614;-52
2021/08/21 02:09:57;;;;;;;37.92;25.25;;;;;;;;;;2090018;28;20164;-53
2021/08/21 02:10:57;;;;;;;37.45;26.73;;;;;;;;;;2081138;28;20203;-57
2021/08/21 02:12:01;;;;;;;34.67;24.13;;;;;;;;;;2081997;28;20173;-56
2021/08/21 02:13:03;;;;;;;34.85;24.17;;;;;;;;;;2081672;28;20164;-57
2021/08/21 02:14:04;;;;;;;32.90;23.10;;;;;;;;;;2064997;28;20234;-57
2021/08/21 02:15:06;;;;;;;31.55;21.83;;;;;;;;;;2065302;28;20782;-57
2021/08/21 02:16:07;;;;;;;30.15;21.73;;;;;;;;;;2072857;28;20235;-55
2021/08/21 02:17:08;;;;;;;26.23;21.05;;;;;;;;;;2074502;28;20169;-53
2021/08/21 02:18:18;;;;;;;26.08;20.63;;;;;;;;;;2074670;28;20219;-56
2021/08/21 02:19:39;;;;;;;23.95;18.52;;;;;;;;;;2089217;28;20256;-53
2021/08/21 02:20:47;;;;;;;28.30;20.13;;;;;;;;;;2082046;28;20279;-52
2021/08/21 02:21:56;;;;;;;27.60;19.20;;;;;;;;;;2074335;28;20626;-54
2021/08/21 02:22:57;;;;;;;24.80;19.70;;;;;;;;;;2073077;28;20590;-54
2021/08/21 02:23:58;;;;;;;27.15;20.67;;;;;;;;;;2081806;28;20234;-53
2021/08/21 02:24:58;;;;;;;22.10;18.95;;;;;;;;;;2081617;28;20168;-55
2021/08/21 02:25:59;;;;;;;26.50;19.95;;;;;;;;;;2081568;28;20716;-52
2021/08/21 02:27:05;;;;;;;26.15;20.77;;;;;;;;;;2073263;28;20290;-52
2021/08/21 02:28:10;;;;;;;30.05;22.27;;;;;;;;;;2074724;28;20157;-53
2021/08/21 02:29:11;;;;;;;31.70;22.02;;;;;;;;;;2090228;28;20195;-52
2021/08/21 02:30:12;;;;;;;32.92;21.60;;;;;;;;;;2081354;28;20350;-53
2021/08/21 02:31:12;;;;;;;33.42;22.67;;;;;;;;;;2073293;28;20256;-55
2021/08/21 02:32:13;;;;;;;26.95;20.33;;;;;;;;;;2070886;28;20208;-53
2021/08/21 02:33:13;;;;;;;25.75;20.90;;;;;;;;;;2073552;28;20212;-54
2021/08/21 02:34:14;;;;;;;28.20;21.40;;;;;;;;;;2080802;28;20609;-52
2021/08/21 02:35:14;;;;;;;24.75;19.70;;;;;;;;;;2090263;28;20254;-54
2021/08/21 02:36:14;;;;;;;21.55;17.65;;;;;;;;;;2089490;28;20681;-57
2021/08/21 02:37:17;;;;;;;21.77;17.98;;;;;;;;;;2080469;28;20188;-52
2021/08/21 02:38:17;;;;;;;24.80;19.98;;;;;;;;;;2072896;28;20169;-54
2021/08/21 02:39:18;;;;;;;24.33;19.25;;;;;;;;;;2071861;28;20205;-54
2021/08/21 02:40:18;;;;;;;28.17;22.88;;;;;;;;;;2081090;28;20611;-54
2021/08/21 02:41:18;;;;;;;24.67;20.58;;;;;;;;;;2080884;28;20671;-53
2021/08/21 02:42:19;;;;;;;26.95;21.48;;;;;;;;;;2081053;28;20184;-53
2021/08/21 02:43:20;;;;;;;33.40;22.33;;;;;;;;;;2089812;28;20636;-51
2021/08/21 02:44:20;;;;;;;35.97;21.98;;;;;;;;;;2089727;28;20172;-53
2021/08/21 02:45:21;;;;;;;31.05;22.85;;;;;;;;;;2090502;28;20766;-55
2021/08/21 02:46:21;;;;;;;32.47;22.58;;;;;;;;;;2081032;28;20172;-53
2021/08/21 02:47:21;;;;;;;32.15;23.20;;;;;;;;;;2075613;28;20219;-53
2021/08/21 02:48:22;;;;;;;28.70;22.35;;;;;;;;;;2076721;28;20196;-57
2021/08/21 02:49:23;;;;;;;28.35;22.08;;;;;;;;;;2087765;28;20719;-57
2021/08/21 02:50:23;;;;;;;26.33;21.30;;;;;;;;;;2097936;28;20207;-55
2021/08/21 02:51:24;;;;;;;33.00;23.48;;;;;;;;;;2097330;28;20183;-56
2021/08/21 02:52:24;;;;;;;30.83;22.65;;;;;;;;;;2089342;28;20223;-56
2021/08/21 02:53:24;;;;;;;33.63;24.77;;;;;;;;;;2080388;28;20261;-54
2021/08/21 02:54:25;;;;;;;33.05;23.98;;;;;;;;;;2088501;28;20164;-54
2021/08/21 02:55:26;;;;;;;38.65;25.20;;;;;;;;;;2088176;28;20196;-56
2021/08/21 02:56:27;;;;;;;32.85;23.63;;;;;;;;;;2088625;28;20673;-55
2021/08/21 02:57:27;;;;;;;29.48;21.52;;;;;;;;;;2087495;28;20173;-57
2021/08/21 02:58:29;;;;;;;27.65;21.83;;;;;;;;;;2085970;28;20180;-57
2021/08/21 02:59:30;;;;;;;27.10;20.88;;;;;;;;;;2086097;28;20702;-55
2021/08/21 03:00:33;;;;;;;27.63;21.35;;;;;;;;;;2077154;28;20180;-57
2021/08/21 03:01:37;;;;;;;27.80;21.50;;;;;;;;;;2077527;28;20240;-56
2021/08/21 03:02:40;;;;;;;32.38;24.48;;;;;;;;;;2074879;28;20212;-56
2021/08/21 03:03:42;;;;;;;34.03;24.42;;;;;;;;;;2084520;28;20184;-57
2021/08/21 03:04:43;;;;;;;32.22;23.90;;;;;;;;;;2090783;28;20171;-56
2021/08/21 03:05:45;;;;;;;30.75;23.48;;;;;;;;;;2090127;28;20258;-57
2021/08/21 03:06:46;;;;;;;30.02;23.45;;;;;;;;;;2071756;28;20176;-55
2021/08/21 03:07:58;;;;;;;34.65;23.30;;;;;;;;;;2080681;28;20262;-54
2021/08/21 03:08:58;;;;;;;27.35;21.45;;;;;;;;;;2095697;28;20196;-55
2021/08/21 03:10:00;;;;;;;31.67;23.00;;;;;;;;;;2093832;22;20168;-49
2021/08/21 03:11:13;;;;;;;24.75;19.50;;;;;;;;;;2079967;28;20168;-53
2021/08/21 03:12:36;;;;;;;25.20;19.98;;;;;;;;;;2082873;28;20196;-53
2021/08/21 03:13:39;;;;;;;29.30;21.42;;;;;;;;;;2089994;28;20175;-55
2021/08/21 03:14:39;;;;;;;25.92;20.50;;;;;;;;;;2078778;28;20611;-53
2021/08/21 03:15:39;;;;;;;28.50;20.67;;;;;;;;;;2081193;28;20172;-53
2021/08/21 03:16:40;;;;;;;24.90;21.05;;;;;;;;;;2071859;28;20200;-52
2021/08/21 03:17:41;;;;;;;25.63;20.35;;;;;;;;;;2079198;28;20164;-50
2021/08/21 03:18:41;;;;;;;27.52;20.58;;;;;;;;;;2071754;28;20177;-51
2021/08/21 03:19:42;;;;;;;28.45;21.38;;;;;;;;;;2080369;28;20188;-54
2021/08/21 03:20:43;;;;;;;25.15;20.63;;;;;;;;;;2059008;28;20176;-53
2021/08/21 03:21:44;;;;;;;24.70;20.10;;;;;;;;;;2064451;28;20184;-54
2021/08/21 03:22:46;;;;;;;24.85;19.58;;;;;;;;;;2073035;28;20227;-55
2021/08/21 03:23:52;;;;;;;22.35;18.35;;;;;;;;;;2065299;28;20177;-55
2021/08/21 03:24:52;;;;;;;24.83;19.20;;;;;;;;;;2073210;28;20205;-51
2021/08/21 03:25:52;;;;;;;32.95;23.02;;;;;;;;;;2072367;28;20216;-55
2021/08/21 03:26:53;;;;;;;26.30;20.83;;;;;;;;;;2072285;28;20209;-51
2021/08/21 03:27:53;;;;;;;23.73;20.05;;;;;;;;;;2079912;28;20249;-55
2021/08/21 03:28:53;;;;;;;24.90;19.83;;;;;;;;;;2067045;28;20782;-51
2021/08/21 03:29:54;;;;;;;30.08;20.70;;;;;;;;;;2064548;28;20264;-52
2021/08/21 03:30:54;;;;;;;25.83;21.05;;;;;;;;;;2056668;28;20189;-51
2021/08/21 03:31:58;;;;;;;28.30;21.45;;;;;;;;;;2064854;28;20199;-55
2021/08/21 03:32:59;;;;;;;30.55;22.08;;;;;;;;;;2061194;28;20189;-56
2021/08/21 03:33:59;;;;;;;28.77;21.50;;;;;;;;;;2064721;28;20227;-53
2021/08/21 03:35:00;;;;;;;32.00;22.45;;;;;;;;;;2072827;28;20192;-54
2021/08/21 03:36:02;;;;;;;32.92;22.38;;;;;;;;;;2069965;28;20253;-54
2021/08/21 03:37:05;;;;;;;28.20;21.30;;;;;;;;;;2064055;28;20188;-53
2021/08/21 03:38:11;;;;;;;34.53;22.77;;;;;;;;;;2068974;28;20549;-54
2021/08/21 03:39:24;;;;;;;30.02;21.55;;;;;;;;;;2066175;28;20669;-55
2021/08/21 03:40:25;;;;;;;27.95;21.02;;;;;;;;;;2072815;28;20623;-50
2021/08/21 03:41:42;;;;;;;29.27;21.33;;;;;;;;;;2066999;28;20177;-50
2021/08/21 03:42:42;;;;;;;31.38;22.08;;;;;;;;;;2072878;28;20199;-51
2021/08/21 03:43:45;;;;;;;36.95;24.40;;;;;;;;;;2072761;28;20298;-51
2021/08/21 03:44:45;;;;;;;32.63;22.73;;;;;;;;;;2064220;28;20634;-52
2021/08/21 03:45:46;;;;;;;31.60;22.27;;;;;;;;;;2058416;28;20209;-55
2021/08/21 03:46:48;;;;;;;30.58;22.00;;;;;;;;;;2064792;28;20224;-50
2021/08/21 03:47:49;;;;;;;31.13;22.17;;;;;;;;;;2062433;28;20215;-51
2021/08/21 03:48:49;;;;;;;36.20;24.92;;;;;;;;;;2064163;28;20545;-55
2021/08/21 03:49:49;;;;;;;37.42;25.73;;;;;;;;;;2071532;28;20255;-52
2021/08/21 03:50:50;;;;;;;38.75;25.77;;;;;;;;;;2071313;28;20173;-54
2021/08/21 03:51:50;;;;;;;34.72;25.55;;;;;;;;;;2063709;28;20204;-53
2021/08/21 03:52:53;;;;;;;37.60;24.60;;;;;;;;;;2063995;28;20181;-52
2021/08/21 03:53:54;;;;;;;34.67;24.27;;;;;;;;;;2063851;28;20185;-55
2021/08/21 03:54:55;;;;;;;34.00;23.00;;;;;;;;;;2080514;28;20275;-51
2021/08/21 03:55:55;;;;;;;33.90;22.83;;;;;;;;;;2081664;28;20172;-55
2021/08/21 03:56:55;;;;;;;29.25;21.38;;;;;;;;;;2072375;28;20165;-52
2021/08/21 03:58:00;;;;;;;30.40;20.80;;;;;;;;;;2062249;28;20768;-55
2021/08/21 03:59:00;;;;;;;36.47;24.33;;;;;;;;;;2068786;28;20185;-55
2021/08/21 04:00:01;;;;;;;34.22;23.75;;;;;;;;;;2072148;28;20242;-51
2021/08/21 04:01:01;;;;;;;33.03;24.45;;;;;;;;;;2064311;28;20200;-54
2021/08/21 04:02:02;;;;;;;31.58;22.73;;;;;;;;;;2071767;28;20195;-55
2021/08/21 04:03:05;;;;;;;30.58;21.10;;;;;;;;;;2079978;28;20263;-53
2021/08/21 04:04:07;;;;;;;30.23;21.77;;;;;;;;;;2070238;28;20165;-51
2021/08/21 04:05:11;;;;;;;38.28;25.17;;;;;;;;;;2069834;28;20173;-53
2021/08/21 04:06:11;;;;;;;37.38;26.17;;;;;;;;;;2064175;28;20223;-52
2021/08/21 04:07:15;;;;;;;31.83;23.38;;;;;;;;;;2055903;28;20501;-52
2021/08/21 04:08:15;;;;;;;33.47;25.80;;;;;;;;;;2060828;28;20340;-56
2021/08/21 04:09:18;;;;;;;33.67;23.33;;;;;;;;;;2064210;28;20181;-55
2021/08/21 04:10:19;;;;;;;31.38;22.75;;;;;;;;;;2061177;28;20200;-51
2021/08/21 04:11:20;;;;;;;34.03;23.95;;;;;;;;;;2070710;28;20296;-52
2021/08/21 04:12:41;;;;;;;33.00;23.70;;;;;;;;;;2065039;28;20780;-56
2021/08/21 04:13:48;;;;;;;31.42;22.10;;;;;;;;;;2064419;28;20165;-53
2021/08/21 04:14:48;;;;;;;30.48;22.80;;;;;;;;;;2072132;28;20317;-52
2021/08/21 04:15:49;;;;;;;34.08;23.30;;;;;;;;;;2072517;28;20180;-53
2021/08/21 04:16:50;;;;;;;31.88;23.08;;;;;;;;;;2062474;28;20752;-54
2021/08/21 04:17:52;;;;;;;34.97;23.52;;;;;;;;;;2064538;28;20272;-56
2021/08/21 04:18:55;;;;;;;36.30;24.60;;;;;;;;;;2062655;28;20289;-52
2021/08/21 04:19:58;;;;;;;29.48;22.50;;;;;;;;;;2063263;28;20650;-54
2021/08/21 04:20:58;;;;;;;29.58;22.80;;;;;;;;;;2060013;28;20194;-57
2021/08/21 04:21:59;;;;;;;34.58;23.85;;;;;;;;;;2072566;28;20173;-55
2021/08/21 04:23:19;;;;;;;36.05;24.15;;;;;;;;;;2072601;28;20661;-53
2021/08/21 04:24:21;;;;;;;31.48;23.55;;;;;;;;;;2072207;28;20693;-56
2021/08/21 04:25:27;;;;;;;37.03;25.02;;;;;;;;;;2064154;28;20272;-61
2021/08/21 04:26:35;;;;;;;37.65;23.98;;;;;;;;;;2073147;28;20252;-55
2021/08/21 04:27:35;;;;;;;37.80;25.05;;;;;;;;;;2080494;28;20160;-52
2021/08/21 04:28:36;;;;;;;35.53;23.92;;;;;;;;;;2069411;28;20192;-53
2021/08/21 04:29:38;;;;;;;40.35;25.33;;;;;;;;;;2064034;28;20169;-54
2021/08/21 04:30:39;;;;;;;37.50;24.77;;;;;;;;;;2063302;28;20193;-55
2021/08/21 04:31:40;;;;;;;35.75;24.13;;;;;;;;;;2063254;28;20261;-55
2021/08/21 04:32:42;;;;;;;39.50;26.23;;;;;;;;;;2071460;28;20197;-52
2021/08/21 04:33:43;;;;;;;37.30;24.85;;;;;;;;;;2063655;28;20273;-54
2021/08/21 04:34:44;;;;;;;34.20;24.00;;;;;;;;;;2062286;28;20840;-54
2021/08/21 04:35:48;;;;;;;35.95;24.75;;;;;;;;;;2063910;28;20177;-55
2021/08/21 04:36:48;;;;;;;35.30;25.17;;;;;;;;;;2062930;28;20170;-55
2021/08/21 04:37:52;;;;;;;42.20;27.48;;;;;;;;;;2072026;28;20203;-54
2021/08/21 04:38:53;;;;;;;45.83;27.90;;;;;;;;;;2062450;28;20280;-55
2021/08/21 04:39:54;;;;;;;50.22;30.95;;;;;;;;;;2071988;28;20181;-53
2021/08/21 04:40:57;;;;;;;48.17;32.40;;;;;;;;;;2071350;28;20610;-55
2021/08/21 04:41:58;;;;;;;53.72;32.75;;;;;;;;;;2064293;28;20165;-52
2021/08/21 04:42:58;;;;;;;59.10;34.28;;;;;;;;;;2063942;28;20257;-52
2021/08/21 04:43:59;;;;;;;54.50;32.83;;;;;;;;;;2063758;28;20260;-57
2021/08/21 04:45:00;;;;;;;49.78;32.28;;;;;;;;;;2064467;28;20681;-56
2021/08/21 04:46:03;;;;;;;49.50;31.42;;;;;;;;;;2064123;28;20197;-58
2021/08/21 04:47:04;;;;;;;50.95;31.95;;;;;;;;;;2064207;28;20192;-57
2021/08/21 04:48:05;;;;;;;52.47;33.33;;;;;;;;;;2071624;28;20172;-57
2021/08/21 04:49:05;;;;;;;50.35;33.53;;;;;;;;;;2069419;28;20260;-55
2021/08/21 04:50:07;;;;;;;54.25;32.20;;;;;;;;;;2060360;28;20244;-53
2021/08/21 04:51:09;;;;;;;51.47;33.15;;;;;;;;;;2064022;28;20170;-54
2021/08/21 04:52:11;;;;;;;49.42;31.60;;;;;;;;;;2071555;28;20212;-50
2021/08/21 04:53:14;;;;;;;52.10;32.75;;;;;;;;;;2071877;28;20184;-55
2021/08/21 04:54:17;;;;;;;48.38;30.58;;;;;;;;;;2072563;28;20185;-53
2021/08/21 04:55:19;;;;;;;50.20;32.03;;;;;;;;;;2071840;28;20720;-51
2021/08/21 04:56:20;;;;;;;48.63;31.40;;;;;;;;;;2063259;28;20867;-52
2021/08/21 04:57:46;;;;;;;43.58;28.92;;;;;;;;;;2075248;28;20667;-51
2021/08/21 04:58:47;;;;;;;45.92;28.17;;;;;;;;;;2070606;28;20165;-52
2021/08/21 04:59:48;;;;;;;51.03;29.20;;;;;;;;;;2063460;28;20173;-51
2021/08/21 05:00:49;;;;;;;44.47;29.38;;;;;;;;;;2063010;28;20174;-52
2021/08/21 05:01:56;;;;;;;39.90;26.13;;;;;;;;;;2064692;28;20725;-51
2021/08/21 05:02:58;;;;;;;47.47;29.05;;;;;;;;;;2068476;28;20176;-53
2021/08/21 05:03:59;;;;;;;45.60;29.17;;;;;;;;;;2071623;28;20165;-53
2021/08/21 05:05:02;;;;;;;44.50;29.08;;;;;;;;;;2063782;28;20165;-55
2021/08/21 05:06:03;;;;;;;47.50;29.83;;;;;;;;;;2059946;28;20740;-51
2021/08/21 05:07:04;;;;;;;44.05;29.67;;;;;;;;;;2062997;28;20173;-54
2021/08/21 05:08:06;;;;;;;43.58;29.13;;;;;;;;;;2064590;28;20169;-52
2021/08/21 05:09:06;;;;;;;45.08;28.80;;;;;;;;;;2062150;28;20177;-56
2021/08/21 05:10:07;;;;;;;44.13;29.20;;;;;;;;;;2072212;28;20216;-53
2021/08/21 05:11:07;;;;;;;44.65;27.90;;;;;;;;;;2067350;28;20192;-48
2021/08/21 05:12:08;;;;;;;39.58;28.90;;;;;;;;;;2069032;28;20180;-56
2021/08/21 05:13:17;;;;;;;47.15;30.70;;;;;;;;;;2070807;28;20169;-54
2021/08/21 05:14:18;;;;;;;43.33;29.73;;;;;;;;;;2063753;28;20169;-54
2021/08/21 05:15:18;;;;;;;46.25;30.45;;;;;;;;;;2070615;28;20239;-54
2021/08/21 05:16:32;;;;;;;37.30;26.85;;;;;;;;;;2071517;28;20660;-52
2021/08/21 05:17:52;;;;;;;42.28;28.17;;;;;;;;;;2075029;28;20181;-52
2021/08/21 05:19:13;;;;;;;40.67;27.45;;;;;;;;;;2071796;28;20173;-53
2021/08/21 05:20:18;;;;;;;40.92;27.13;;;;;;;;;;2065072;28;20213;-48
2021/08/21 05:21:36;;;;;;;40.65;28.02;;;;;;;;;;2062457;28;20177;-55
2021/08/21 05:23:45;;;;;;;43.50;28.23;;;;;;;;;;2071673;28;20191;-55
2021/08/21 05:24:46;;;;;;;43.90;30.50;;;;;;;;;;2071775;28;20268;-51
2021/08/21 05:25:47;;;;;;;42.05;30.38;;;;;;;;;;2071519;28;20179;-50
2021/08/21 05:26:48;;;;;;;46.92;31.00;;;;;;;;;;2071879;28;20180;-48
2021/08/21 05:27:49;;;;;;;49.40;31.98;;;;;;;;;;2072150;28;20169;-54
2021/08/21 05:28:50;;;;;;;41.03;28.10;;;;;;;;;;2063225;28;20252;-53
2021/08/21 05:29:51;;;;;;;43.65;30.10;;;;;;;;;;2064014;28;20177;-51
2021/08/21 05:30:51;;;;;;;47.92;28.90;;;;;;;;;;2071334;28;20169;-55
2021/08/21 05:31:52;;;;;;;44.53;29.92;;;;;;;;;;2077134;28;20204;-52
2021/08/21 05:32:52;;;;;;;47.03;31.13;;;;;;;;;;2072993;28;20673;-54
2021/08/21 05:33:52;;;;;;;47.22;30.85;;;;;;;;;;2064694;28;20173;-51
2021/08/21 05:34:52;;;;;;;44.92;30.95;;;;;;;;;;2073045;28;20268;-55
2021/08/21 05:35:54;;;;;;;47.20;31.02;;;;;;;;;;2076367;28;20549;-51
2021/08/21 05:36:54;;;;;;;47.63;32.42;;;;;;;;;;2080261;28;20726;-53
2021/08/21 05:37:54;;;;;;;51.92;33.58;;;;;;;;;;2078224;28;20173;-51
2021/08/21 05:38:55;;;;;;;47.53;30.73;;;;;;;;;;2076107;28;20180;-54
2021/08/21 05:39:55;;;;;;;44.58;31.92;;;;;;;;;;2081038;28;20172;-51
2021/08/21 05:40:55;;;;;;;47.70;31.35;;;;;;;;;;2082323;28;20554;-51
2021/08/21 05:41:55;;;;;;;52.72;33.90;;;;;;;;;;2070234;28;20824;-54
2021/08/21 05:42:56;;;;;;;52.50;32.25;;;;;;;;;;2069150;28;20827;-56
2021/08/21 05:43:56;;;;;;;49.15;32.70;;;;;;;;;;2081984;28;20168;-52
2021/08/21 05:44:56;;;;;;;49.08;32.63;;;;;;;;;;2082567;28;20230;-53
2021/08/21 05:45:57;;;;;;;48.08;32.50;;;;;;;;;;2081742;28;20537;-54
2021/08/21 05:46:57;;;;;;;48.25;31.48;;;;;;;;;;2073801;28;20188;-54
2021/08/21 05:47:57;;;;;;;42.90;30.20;;;;;;;;;;2072798;28;20223;-56
2021/08/21 05:48:57;;;;;;;46.50;30.73;;;;;;;;;;2082125;28;20229;-54
2021/08/21 05:50:01;;;;;;;36.42;27.48;;;;;;;;;;2081999;28;20706;-55
2021/08/21 05:51:01;;;;;;;43.58;28.83;;;;;;;;;;2082414;28;20171;-54
2021/08/21 05:52:01;;;;;;;41.00;28.50;;;;;;;;;;2079956;28;20239;-54
2021/08/21 05:53:03;;;;;;;45.63;30.55;;;;;;;;;;2073378;28;20180;-56
2021/08/21 05:54:03;;;;;;;41.40;29.40;;;;;;;;;;2072806;28;20664;-53
2021/08/21 05:55:04;;;;;;;44.80;29.85;;;;;;;;;;2081450;28;20226;-52
2021/08/21 05:56:15;;;;;;;44.15;28.77;;;;;;;;;;2071444;28;20563;-55
2021/08/21 05:57:15;;;;;;;40.72;28.83;;;;;;;;;;2073162;28;20244;-56
2021/08/21 05:58:15;;;;;;;45.85;30.05;;;;;;;;;;2079601;28;20176;-54
2021/08/21 05:59:21;;;;;;;41.63;29.75;;;;;;;;;;2071677;28;20157;-51
2021/08/21 06:00:21;;;;;;;41.88;29.40;;;;;;;;;;2070447;28;20208;-54
2021/08/21 06:01:21;;;;;;;43.55;30.90;;;;;;;;;;2080345;28;20160;-53
2021/08/21 06:02:21;;;;;;;45.83;31.50;;;;;;;;;;2078578;28;20181;-55
2021/08/21 06:03:22;;;;;;;42.35;30.35;;;;;;;;;;2081797;28;20655;-54
2021/08/21 06:04:22;;;;;;;45.65;29.85;;;;;;;;;;2073001;28;20173;-52
2021/08/21 06:05:22;;;;;;;44.35;30.55;;;;;;;;;;2072650;28;20181;-57